createdAt,value
2022-09-20T00:01:27.121Z,10.05
2022-09-20T00:03:57.146Z,10.07
2022-09-20T00:06:27.178Z,10.13
2022-09-20T00:08:54.425Z,10.20
2022-09-20T00:11:24.723Z,10.27
2022-09-20T00:13:54.794Z,10.33
2022-09-20T00:16:25.139Z,10.35
2022-09-20T00:18:54.327Z,10.36
2022-09-20T00:21:27.086Z,10.32
2022-09-20T00:23:55.005Z,10.38
2022-09-20T00:26:21.889Z,10.41
2022-09-20T00:28:48.745Z,10.39
2022-09-20T00:31:15.943Z,10.34
2022-09-20T00:34:01.422Z,10.36
2022-09-20T00:36:28.626Z,10.38
2022-09-20T00:39:00.986Z,10.50
2022-09-20T00:41:28.771Z,10.60
2022-09-20T00:43:55.866Z,10.62
2022-09-20T00:46:43.516Z,10.68
2022-09-20T00:49:22.568Z,10.69
2022-09-20T00:51:55.692Z,10.63
2022-09-20T00:54:25.546Z,10.59
2022-09-20T00:56:52.597Z,10.54
2022-09-20T00:59:25.599Z,10.51
2022-09-20T01:01:56.687Z,10.46
2022-09-20T01:04:27.508Z,10.45
2022-09-20T01:07:01.136Z,10.43
2022-09-20T01:09:28.184Z,10.49
2022-09-20T01:11:57.752Z,10.51
2022-09-20T01:14:26.398Z,10.58
2022-09-20T01:16:56.237Z,10.63
2022-09-20T01:19:40.576Z,10.62
2022-09-20T01:22:21.112Z,10.67
2022-09-20T01:24:59.992Z,11.25
2022-09-20T01:27:44.949Z,11.37
2022-09-20T01:30:24.376Z,11.44
2022-09-20T01:33:03.331Z,11.45
2022-09-20T01:35:34.311Z,11.47
2022-09-20T01:38:28.018Z,11.58
2022-09-20T01:41:06.820Z,11.48
2022-09-20T01:43:53.203Z,11.52
2022-09-20T01:46:20.076Z,11.40
2022-09-20T01:48:50.095Z,11.36
2022-09-20T01:51:36.195Z,11.54
2022-09-20T01:54:12.072Z,11.58
2022-09-20T01:57:04.874Z,11.50
2022-09-20T01:59:53.544Z,11.45
2022-09-20T02:02:29.349Z,11.32
2022-09-20T02:05:17.427Z,11.17
2022-09-20T02:07:55.588Z,11.14
2022-09-20T02:10:47.337Z,11.05
2022-09-20T02:13:29.646Z,10.93
2022-09-20T02:16:21.573Z,10.69
2022-09-20T02:19:32.949Z,10.50
2022-09-20T02:22:27.632Z,10.69
2022-09-20T02:24:57.469Z,10.73
2022-09-20T02:27:26.603Z,10.63
2022-09-20T02:30:01.162Z,10.56
2022-09-20T02:32:46.647Z,10.50
2022-09-20T02:36:01.553Z,10.41
2022-09-20T02:38:40.140Z,10.28
2022-09-20T02:41:51.741Z,10.37
2022-09-20T02:44:57.366Z,10.27
2022-09-20T02:47:57.135Z,10.21
2022-09-20T02:50:47.529Z,10.17
2022-09-20T02:53:23.954Z,10.15
2022-09-20T02:56:18.846Z,9.97
2022-09-20T02:59:00.318Z,9.91
2022-09-20T03:02:00.515Z,9.86
2022-09-20T03:04:45.865Z,9.79
2022-09-20T03:07:37.505Z,9.69
2022-09-20T03:10:14.106Z,9.55
2022-09-20T03:12:53.079Z,9.38
2022-09-20T03:15:41.822Z,9.21
2022-09-20T03:18:13.955Z,9.18
2022-09-20T03:21:02.451Z,9.13
2022-09-20T03:23:46.531Z,8.99
2022-09-20T03:26:21.302Z,8.93
2022-09-20T03:29:20.405Z,8.81
2022-09-20T03:32:01.990Z,8.73
2022-09-20T03:34:50.712Z,8.54
2022-09-20T03:37:56.584Z,8.43
2022-09-20T03:40:29.599Z,8.33
2022-09-20T03:43:10.084Z,8.27
2022-09-20T03:45:46.432Z,8.25
2022-09-20T03:48:51.792Z,8.14
2022-09-20T03:51:33.744Z,8.00
2022-09-20T03:54:15.956Z,7.93
2022-09-20T03:57:34.591Z,7.83
2022-09-20T04:00:22.733Z,7.74
2022-09-20T04:03:07.866Z,7.67
2022-09-20T04:05:40.557Z,7.61
2022-09-20T04:08:16.262Z,7.55
2022-09-20T04:10:42.932Z,7.47
2022-09-20T04:13:34.999Z,7.44
2022-09-20T04:16:01.693Z,7.38
2022-09-20T04:18:40.158Z,7.31
2022-09-20T04:21:15.632Z,7.17
2022-09-20T04:24:04.154Z,7.20
2022-09-20T04:26:36.187Z,7.19
2022-09-20T04:29:24.629Z,7.20
2022-09-20T04:32:13.286Z,7.16
2022-09-20T04:35:14.867Z,7.11
2022-09-20T04:37:44.669Z,7.10
2022-09-20T04:40:33.150Z,7.10
2022-09-20T04:43:18.609Z,7.17
2022-09-20T04:46:00.761Z,7.16
2022-09-20T04:48:33.455Z,7.21
2022-09-20T04:51:31.762Z,7.21
2022-09-20T04:54:22.554Z,7.17
2022-09-20T04:57:34.478Z,7.07
2022-09-20T05:00:12.734Z,6.99
2022-09-20T05:03:16.945Z,6.96
2022-09-20T05:06:23.682Z,6.88
2022-09-20T05:09:33.550Z,6.78
2022-09-20T05:12:39.414Z,6.66
2022-09-20T05:15:36.434Z,6.57
2022-09-20T05:18:46.144Z,6.44
2022-09-20T05:21:50.612Z,6.40
2022-09-20T05:24:42.685Z,6.45
2022-09-20T05:27:12.556Z,6.49
2022-09-20T05:30:04.302Z,6.51
2022-09-20T05:32:45.311Z,6.62
2022-09-20T05:35:26.547Z,6.65
2022-09-20T05:38:02.364Z,6.63
2022-09-20T05:40:41.152Z,6.62
2022-09-20T05:43:20.281Z,6.68
2022-09-20T05:46:14.929Z,6.69
2022-09-20T05:49:13.082Z,6.72
2022-09-20T05:51:58.657Z,6.76
2022-09-20T05:54:35.404Z,6.78
2022-09-20T05:57:36.124Z,6.81
2022-09-20T06:00:27.849Z,6.96
2022-09-20T06:03:14.082Z,7.16
2022-09-20T06:05:52.949Z,7.37
2022-09-20T06:08:37.942Z,7.53
2022-09-20T06:11:27.061Z,7.67
2022-09-20T06:14:03.749Z,7.82
2022-09-20T06:17:02.850Z,8.04
2022-09-20T06:19:39.197Z,8.27
2022-09-20T06:22:14.039Z,8.52
2022-09-20T06:25:05.785Z,8.84
2022-09-20T06:27:47.310Z,9.12
2022-09-20T06:30:25.004Z,9.37
2022-09-20T06:32:57.514Z,9.50
2022-09-20T06:35:29.044Z,9.64
2022-09-20T06:38:34.368Z,9.84
2022-09-20T06:41:19.629Z,10.09
2022-09-20T06:43:48.538Z,10.38
2022-09-20T06:46:16.204Z,10.58
2022-09-20T06:48:43.030Z,10.71
2022-09-20T06:51:10.193Z,10.78
2022-09-20T06:53:40.306Z,10.91
2022-09-20T06:56:18.249Z,11.15
2022-09-20T06:58:45.286Z,11.33
2022-09-20T07:01:13.778Z,11.44
2022-09-20T07:03:41.701Z,11.54
2022-09-20T07:06:09.453Z,11.57
2022-09-20T07:08:36.479Z,11.49
2022-09-20T07:11:10.282Z,11.51
2022-09-20T07:13:37.085Z,11.54
2022-09-20T07:16:06.541Z,11.64
2022-09-20T07:18:34.801Z,11.76
2022-09-20T07:21:02.122Z,11.85
2022-09-20T07:23:30.189Z,11.93
2022-09-20T07:26:01.195Z,11.98
2022-09-20T07:28:29.594Z,12.08
2022-09-20T07:30:56.467Z,12.53
2022-09-20T07:33:25.036Z,12.88
2022-09-20T07:35:56.940Z,13.62
2022-09-20T07:38:24.388Z,14.44
2022-09-20T07:41:02.380Z,15.14
2022-09-20T07:43:30.552Z,15.89
2022-09-20T07:45:59.427Z,16.34
2022-09-20T07:48:30.229Z,16.54
2022-09-20T07:51:04.754Z,17.16
2022-09-20T07:53:35.109Z,17.99
2022-09-20T07:56:28.354Z,18.22
2022-09-20T07:58:55.293Z,18.14
2022-09-20T08:01:23.542Z,18.66
2022-09-20T08:03:51.848Z,19.56
2022-09-20T08:06:21.237Z,18.64
2022-09-20T08:08:48.374Z,17.69
2022-09-20T08:11:20.678Z,17.77
2022-09-20T08:14:07.080Z,17.65
2022-09-20T08:16:41.952Z,16.93
2022-09-20T08:19:12.744Z,16.76
2022-09-20T08:21:39.837Z,16.96
2022-09-20T08:24:06.839Z,18.16
2022-09-20T08:26:35.807Z,19.78
2022-09-20T08:29:05.800Z,20.92
2022-09-20T08:31:36.958Z,20.51
2022-09-20T08:34:06.878Z,18.40
2022-09-20T08:36:36.943Z,16.50
2022-09-20T08:42:02.189Z,14.67
2022-09-20T08:44:35.641Z,15.88
2022-09-20T08:47:09.876Z,17.23
2022-09-20T08:49:38.083Z,18.44
2022-09-20T08:52:10.284Z,18.81
2022-09-20T08:54:37.502Z,18.81
2022-09-20T08:57:12.939Z,17.52
2022-09-20T08:59:40.856Z,16.41
2022-09-20T09:02:20.223Z,16.16
2022-09-20T09:04:49.202Z,16.05
2022-09-20T09:07:20.964Z,16.10
2022-09-20T09:09:51.305Z,15.73
2022-09-20T09:12:23.933Z,15.33
2022-09-20T09:14:59.328Z,15.27
2022-09-20T09:17:30.256Z,15.17
2022-09-20T09:19:58.767Z,15.00
2022-09-20T09:22:35.259Z,15.04
2022-09-20T09:25:17.270Z,15.21
2022-09-20T09:28:03.866Z,15.52
2022-09-20T09:30:40.461Z,15.48
2022-09-20T09:33:30.375Z,15.81
2022-09-20T09:36:06.892Z,15.57
2022-09-20T09:38:40.368Z,15.77
2022-09-20T09:41:27.132Z,16.11
2022-09-20T09:44:09.673Z,16.51
2022-09-20T09:46:40.080Z,16.81
2022-09-20T09:49:36.129Z,17.08
2022-09-20T09:52:13.069Z,16.96
2022-09-20T09:55:04.664Z,17.38
2022-09-20T09:58:06.625Z,17.33
2022-09-20T10:00:35.768Z,17.85
2022-09-20T10:03:20.728Z,18.00
2022-09-20T10:06:23.942Z,18.08
2022-09-20T10:09:02.247Z,18.05
2022-09-20T10:12:00.213Z,18.26
2022-09-20T10:14:38.351Z,17.78
2022-09-20T10:17:34.245Z,18.08
2022-09-20T10:20:11.171Z,17.89
2022-09-20T10:25:57.169Z,17.66
2022-09-20T10:28:48.633Z,17.47
2022-09-20T10:31:30.998Z,18.74
2022-09-20T10:34:35.605Z,20.52
2022-09-20T10:37:02.524Z,21.83
2022-09-20T10:39:36.415Z,22.78
2022-09-20T10:42:40.693Z,23.36
2022-09-20T10:46:08.751Z,24.30
2022-09-20T10:48:32.880Z,24.61
2022-09-20T10:51:23.283Z,24.85
2022-09-20T10:54:01.402Z,22.46
2022-09-20T10:56:36.896Z,19.93
2022-09-20T10:59:36.044Z,18.39
2022-09-20T11:02:15.159Z,17.39
2022-09-20T11:04:56.482Z,16.56
2022-09-20T11:07:23.245Z,18.50
2022-09-20T11:09:57.513Z,20.83
2022-09-20T11:12:39.461Z,22.06
2022-09-20T11:15:18.060Z,22.94
2022-09-20T11:18:10.360Z,24.11
2022-09-20T11:20:54.396Z,23.83
2022-09-20T11:23:32.464Z,22.61
2022-09-20T11:26:10.312Z,20.71
2022-09-20T11:28:40.409Z,20.88
2022-09-20T11:31:27.831Z,19.66
2022-09-20T11:34:01.808Z,17.78
2022-09-20T11:36:53.932Z,18.55
2022-09-20T11:40:00.287Z,21.02
2022-09-20T11:42:36.802Z,22.77
2022-09-20T11:45:04.136Z,24.71
2022-09-20T11:47:54.359Z,25.20
2022-09-20T11:50:49.513Z,26.22
2022-09-20T11:53:36.937Z,25.96
2022-09-20T11:56:12.887Z,26.04
2022-09-20T11:58:55.210Z,24.66
2022-09-20T12:01:32.321Z,25.25
2022-09-20T12:04:30.537Z,25.61
2022-09-20T12:07:04.664Z,23.50
2022-09-20T12:09:38.441Z,24.69
2022-09-20T12:12:16.781Z,25.27
2022-09-20T12:14:54.696Z,22.93
2022-09-20T12:17:46.004Z,23.82
2022-09-20T12:20:45.023Z,24.22
2022-09-20T12:23:42.474Z,24.32
2022-09-20T12:26:21.717Z,24.28
2022-09-20T12:28:50.763Z,21.47
2022-09-20T12:31:29.856Z,19.53
2022-09-20T12:34:11.875Z,18.04
2022-09-20T12:37:05.011Z,20.22
2022-09-20T12:39:34.533Z,22.49
2022-09-20T12:42:01.239Z,24.17
2022-09-20T12:44:39.316Z,24.37
2022-09-20T12:47:12.047Z,23.76
2022-09-20T12:50:06.642Z,22.68
2022-09-20T12:52:57.980Z,21.23
2022-09-20T12:55:27.991Z,23.99
2022-09-20T12:58:04.934Z,23.69
2022-09-20T13:00:59.575Z,20.57
2022-09-20T13:03:37.049Z,22.19
2022-09-20T13:06:06.914Z,23.07
2022-09-20T13:08:39.998Z,23.77
2022-09-20T13:11:06.902Z,24.18
2022-09-20T13:13:36.321Z,24.48
2022-09-20T13:16:06.451Z,25.95
2022-09-20T13:18:36.222Z,24.63
2022-09-20T13:21:07.194Z,24.21
2022-09-20T13:23:45.572Z,25.38
2022-09-20T13:26:13.795Z,26.18
2022-09-20T13:28:51.274Z,24.08
2022-09-20T13:31:23.449Z,23.65
2022-09-20T13:33:51.139Z,22.33
2022-09-20T13:36:29.775Z,20.51
2022-09-20T13:38:58.296Z,20.48
2022-09-20T13:41:29.242Z,20.78
2022-09-20T13:43:57.098Z,20.14
2022-09-20T13:46:30.312Z,19.74
2022-09-20T13:49:14.862Z,19.06
2022-09-20T13:51:41.614Z,19.26
2022-09-20T13:54:37.886Z,19.08
2022-09-20T13:57:13.452Z,18.86
2022-09-20T13:59:45.395Z,17.81
2022-09-20T14:02:26.659Z,18.41
2022-09-20T14:04:56.112Z,18.05
2022-09-20T14:07:26.159Z,18.35
2022-09-20T14:09:54.132Z,20.24
2022-09-20T14:12:23.950Z,23.33
2022-09-20T14:14:51.748Z,22.04
2022-09-20T14:17:21.874Z,20.83
2022-09-20T14:19:51.810Z,19.85
2022-09-20T14:22:28.671Z,18.62
2022-09-20T14:25:19.313Z,18.33
2022-09-20T14:27:46.212Z,17.56
2022-09-20T14:30:36.438Z,18.48
2022-09-20T14:33:07.285Z,17.65
2022-09-20T14:35:34.305Z,18.84
2022-09-20T14:38:08.498Z,18.48
2022-09-20T14:40:44.671Z,18.92
2022-09-20T14:43:33.016Z,22.38
2022-09-20T14:46:04.629Z,23.52
2022-09-20T14:48:35.520Z,23.65
2022-09-20T14:51:28.703Z,24.87
2022-09-20T14:54:04.617Z,23.92
2022-09-20T14:56:37.914Z,24.33
2022-09-20T14:59:20.775Z,22.52
2022-09-20T15:02:01.325Z,19.90
2022-09-20T15:04:29.388Z,18.77
2022-09-20T15:07:01.048Z,17.64
2022-09-20T15:09:28.093Z,17.11
2022-09-20T15:12:03.272Z,16.75
2022-09-20T15:14:33.832Z,17.28
2022-09-20T15:17:04.295Z,16.93
2022-09-20T15:19:31.176Z,16.91
2022-09-20T15:21:58.177Z,16.57
2022-09-20T15:24:25.399Z,16.19
2022-09-20T15:26:52.280Z,16.10
2022-09-20T15:29:19.281Z,15.98
2022-09-20T15:31:48.656Z,15.87
2022-09-20T15:34:16.173Z,15.79
2022-09-20T15:36:43.401Z,15.63
2022-09-20T15:39:11.587Z,15.19
2022-09-20T15:41:38.814Z,15.03
2022-09-20T15:44:06.635Z,15.12
2022-09-20T15:46:34.348Z,15.04
2022-09-20T15:49:02.874Z,14.97
2022-09-20T15:51:30.531Z,14.82
2022-09-20T15:54:02.789Z,14.90
2022-09-20T15:56:32.294Z,14.93
2022-09-20T15:59:05.839Z,15.13
2022-09-20T16:01:40.857Z,15.18
2022-09-20T16:04:12.410Z,15.18
2022-09-20T16:06:41.479Z,15.01
2022-09-20T16:09:09.249Z,14.77
2022-09-20T16:11:36.959Z,14.75
2022-09-20T16:14:04.068Z,14.64
2022-09-20T16:16:37.418Z,14.60
2022-09-20T16:19:21.875Z,14.56
2022-09-20T16:21:59.098Z,14.65
2022-09-20T16:24:31.793Z,14.82
2022-09-20T16:26:59.082Z,14.72
2022-09-20T16:29:26.599Z,14.78
2022-09-20T16:31:54.474Z,14.55
2022-09-20T16:34:23.088Z,14.12
2022-09-20T16:36:53.156Z,13.91
2022-09-20T16:39:21.582Z,13.48
2022-09-20T16:41:49.268Z,13.25
2022-09-20T16:44:16.264Z,13.15
2022-09-20T16:46:45.291Z,13.04
2022-09-20T16:49:13.512Z,13.01
2022-09-20T16:51:42.268Z,12.93
2022-09-20T16:54:14.449Z,12.80
2022-09-20T16:56:43.568Z,12.66
2022-09-20T16:59:11.126Z,12.51
2022-09-20T17:01:39.728Z,12.40
2022-09-20T17:04:07.573Z,12.27
2022-09-20T17:06:39.104Z,12.16
2022-09-20T17:09:07.645Z,12.08
2022-09-20T17:11:37.813Z,11.95
2022-09-20T17:14:05.521Z,11.88
2022-09-20T17:16:34.886Z,11.81
2022-09-20T17:19:07.309Z,11.66
2022-09-20T17:21:37.075Z,11.60
2022-09-20T17:24:05.999Z,11.55
2022-09-20T17:26:38.791Z,11.45
2022-09-20T17:29:09.481Z,11.38
2022-09-20T17:31:41.782Z,11.29
2022-09-20T17:34:11.084Z,11.20
2022-09-20T17:36:42.911Z,11.13
2022-09-20T17:39:12.965Z,11.05
2022-09-20T17:41:41.702Z,10.96
2022-09-20T17:44:10.033Z,10.87
2022-09-20T17:46:38.892Z,10.78
2022-09-20T17:49:18.147Z,10.69
2022-09-20T17:51:48.150Z,10.61
2022-09-20T17:54:19.190Z,10.51
2022-09-20T17:56:48.550Z,10.41
2022-09-20T17:59:16.732Z,10.38
2022-09-20T18:01:45.570Z,10.33
2022-09-20T18:04:13.457Z,10.26
2022-09-20T18:06:49.514Z,10.18
2022-09-20T18:09:19.319Z,10.10
2022-09-20T18:11:49.702Z,10.08
2022-09-20T18:14:19.128Z,10.04
2022-09-20T18:16:47.143Z,10.01
2022-09-20T18:19:16.031Z,9.98
2022-09-20T18:21:43.922Z,9.95
2022-09-20T18:24:12.072Z,9.93
2022-09-20T18:26:39.821Z,9.91
2022-09-20T18:29:12.459Z,9.85
2022-09-20T18:31:46.166Z,9.81
2022-09-20T18:34:18.013Z,9.77
2022-09-20T18:36:48.374Z,9.76
2022-09-20T18:39:15.300Z,9.68
2022-09-20T18:41:44.082Z,9.66
2022-09-20T18:44:14.476Z,9.68
2022-09-20T18:46:41.731Z,9.70
2022-09-20T18:49:13.442Z,9.76
2022-09-20T18:51:40.765Z,9.80
2022-09-20T18:54:11.278Z,9.84
2022-09-20T18:56:43.362Z,9.89
2022-09-20T18:59:20.707Z,9.97
2022-09-20T19:01:50.709Z,10.05
2022-09-20T19:04:59.069Z,10.06
2022-09-20T19:07:28.466Z,10.08
2022-09-20T19:10:08.516Z,10.03
2022-09-20T19:13:02.339Z,9.96
2022-09-20T19:15:50.660Z,9.84
2022-09-20T19:18:47.901Z,9.68
2022-09-20T19:21:27.971Z,9.57
2022-09-20T19:24:27.020Z,9.48
2022-09-20T19:26:53.996Z,9.41
2022-09-20T19:29:26.792Z,9.34
2022-09-20T19:31:57.504Z,9.30
2022-09-20T19:34:25.783Z,9.31
2022-09-20T19:37:18.561Z,9.31
2022-09-20T19:39:58.391Z,9.31
2022-09-20T19:42:47.739Z,9.30
2022-09-20T19:45:33.345Z,9.21
2022-09-20T19:48:28.274Z,9.17
2022-09-20T19:50:56.548Z,9.18
2022-09-20T19:53:28.168Z,9.16
2022-09-20T19:55:59.639Z,9.13
2022-09-20T19:58:26.785Z,9.11
2022-09-20T20:00:53.934Z,9.04
2022-09-20T20:03:23.627Z,9.00
2022-09-20T20:06:17.004Z,8.96
2022-09-20T20:08:59.420Z,8.95
2022-09-20T20:11:42.511Z,8.92
2022-09-20T20:14:21.340Z,8.89
2022-09-20T20:17:04.418Z,8.89
2022-09-20T20:19:34.162Z,8.88
2022-09-20T20:22:10.447Z,8.87
2022-09-20T20:24:53.714Z,8.87
2022-09-20T20:27:21.187Z,8.87
2022-09-20T20:29:49.272Z,8.85
2022-09-20T20:32:16.741Z,8.82
2022-09-20T20:34:43.590Z,8.81
2022-09-20T20:37:10.398Z,8.77
2022-09-20T20:39:37.166Z,8.73
2022-09-20T20:42:06.183Z,8.67
2022-09-20T20:44:37.170Z,8.66
2022-09-20T20:47:05.922Z,8.62
2022-09-20T20:49:33.264Z,8.58
2022-09-20T20:52:04.682Z,8.54
2022-09-20T20:54:32.710Z,8.49
2022-09-20T20:56:59.618Z,8.45
2022-09-20T20:59:26.871Z,8.41
2022-09-20T21:01:53.927Z,8.37
2022-09-20T21:04:21.655Z,8.36
2022-09-20T21:06:50.402Z,8.33
2022-09-20T21:09:17.278Z,8.32
2022-09-20T21:11:44.459Z,8.33
2022-09-20T21:14:12.787Z,8.36
2022-09-20T21:16:45.150Z,8.36
2022-09-20T21:19:15.128Z,8.38
2022-09-20T21:21:43.686Z,8.33
2022-09-20T21:24:12.920Z,8.32
2022-09-20T21:26:40.477Z,8.35
2022-09-20T21:29:10.954Z,8.41
2022-09-20T21:31:44.620Z,8.41
2022-09-20T21:34:14.113Z,8.46
2022-09-20T21:36:41.583Z,8.58
2022-09-20T21:39:08.829Z,8.59
2022-09-20T21:41:37.670Z,8.61
2022-09-20T21:44:06.540Z,8.56
2022-09-20T21:46:40.248Z,8.51
2022-09-20T21:49:09.093Z,8.48
2022-09-20T21:51:37.015Z,8.39
2022-09-20T21:54:04.545Z,8.35
2022-09-20T21:56:36.791Z,8.25
2022-09-20T21:59:05.268Z,8.18
2022-09-20T22:01:35.376Z,8.08
2022-09-20T22:04:08.163Z,8.01
2022-09-20T22:06:40.482Z,7.98
2022-09-20T22:09:13.273Z,7.96
2022-09-20T22:11:45.775Z,7.94
2022-09-20T22:14:15.281Z,7.89
2022-09-20T22:16:43.718Z,7.93
2022-09-20T22:19:12.818Z,8.02
2022-09-20T22:21:42.290Z,8.08
2022-09-20T22:24:10.806Z,8.03
2022-09-20T22:26:42.964Z,8.01
2022-09-20T22:29:10.152Z,8.00
2022-09-20T22:31:44.734Z,7.96
2022-09-20T22:34:15.269Z,7.95
2022-09-20T22:36:42.435Z,7.94
2022-09-20T22:39:11.393Z,7.90
2022-09-20T22:41:41.107Z,7.82
2022-09-20T22:44:08.763Z,7.72
2022-09-20T22:46:36.521Z,7.60
2022-09-20T22:49:08.573Z,7.58
2022-09-20T22:51:36.073Z,7.54
2022-09-20T22:54:08.922Z,7.56
2022-09-20T22:56:36.543Z,7.57
2022-09-20T22:59:15.551Z,7.58
2022-09-20T23:01:45.083Z,7.52
2022-09-20T23:04:14.744Z,7.45
2022-09-20T23:06:45.168Z,7.44
2022-09-20T23:09:14.010Z,7.42
2022-09-20T23:11:44.725Z,7.41
2022-09-20T23:14:13.789Z,7.42
2022-09-20T23:16:41.908Z,7.44
2022-09-20T23:19:10.091Z,7.47
2022-09-20T23:21:38.891Z,7.53
2022-09-20T23:24:11.776Z,7.51
2022-09-20T23:26:41.118Z,7.44
2022-09-20T23:29:13.593Z,7.37
2022-09-20T23:31:45.877Z,7.36
2022-09-20T23:34:14.821Z,7.37
2022-09-20T23:36:42.674Z,7.34
2022-09-20T23:39:10.579Z,7.35
2022-09-20T23:41:38.177Z,7.46
2022-09-20T23:44:06.728Z,7.56
2022-09-20T23:46:34.255Z,7.51
2022-09-20T23:49:01.833Z,7.40
2022-09-20T23:51:29.533Z,7.29
2022-09-20T23:53:56.625Z,7.24
2022-09-20T23:56:24.012Z,7.24
2022-09-20T23:58:51.338Z,7.22
